createdAt,value
2023-01-05T00:00:02.707Z,9.8
2023-01-05T00:20:02.553Z,9.9
2023-01-05T00:40:02.962Z,9.9
2023-01-05T01:00:02.556Z,10
2023-01-05T01:20:02.756Z,10
2023-01-05T01:40:02.249Z,10
2023-01-05T02:00:02.831Z,9.9
2023-01-05T02:20:02.979Z,9.8
2023-01-05T02:40:02.265Z,9.8
2023-01-05T03:00:02.716Z,10
2023-01-05T03:20:02.408Z,10
2023-01-05T03:40:02.686Z,10
2023-01-05T04:00:03.011Z,10
2023-01-05T04:20:02.565Z,9.9
2023-01-05T04:40:03.253Z,9.6
2023-01-05T05:00:02.892Z,9.5
2023-01-05T05:20:02.567Z,9.5
2023-01-05T05:40:02.901Z,9.4
2023-01-05T06:00:02.772Z,9.2
2023-01-05T06:20:02.393Z,9
2023-01-05T06:40:02.833Z,8.8
2023-01-05T07:00:02.291Z,8.8
2023-01-05T07:20:02.403Z,8.9
2023-01-05T07:40:03.834Z,8.8
2023-01-05T08:00:02.705Z,8.8
2023-01-05T08:20:02.542Z,8.9
2023-01-05T08:40:02.895Z,8.9
2023-01-05T09:00:05.255Z,8.8
2023-01-05T09:20:03.539Z,8.6
2023-01-05T09:40:03.265Z,8.8
2023-01-05T10:00:03.881Z,9
2023-01-05T10:20:03.555Z,9.1
2023-01-05T10:40:02.528Z,9.3
2023-01-05T11:00:04.123Z,9.6
2023-01-05T11:20:03.268Z,9.6
2023-01-05T11:40:03.651Z,9.6
2023-01-05T12:00:02.854Z,9.7
2023-01-05T12:20:03.432Z,9.6
2023-01-05T12:40:04.154Z,9.6
2023-01-05T13:00:03.213Z,9.6
2023-01-05T13:40:03.843Z,9.4
2023-01-05T14:00:08.817Z,8.9
2023-01-05T14:20:03.716Z,8.5
2023-01-05T14:40:08.437Z,8.2
2023-01-05T15:00:03.713Z,8
2023-01-05T15:20:02.832Z,7.7
2023-01-05T15:40:03.690Z,7.5
2023-01-05T16:00:02.504Z,7.4
2023-01-05T16:20:02.717Z,7.2
2023-01-05T16:40:02.524Z,7.1
2023-01-05T17:00:04.576Z,7
2023-01-05T17:20:02.751Z,6.9
2023-01-05T17:40:02.486Z,6.7
2023-01-05T18:00:03.753Z,6.7
2023-01-05T18:20:02.815Z,6.5
2023-01-05T18:40:02.633Z,6.4
2023-01-05T19:00:02.997Z,6.3
2023-01-05T19:20:02.947Z,6.2
2023-01-05T19:40:02.934Z,6.2
2023-01-05T20:00:03.032Z,6.1
2023-01-05T20:20:03.210Z,6.1
2023-01-05T20:40:03.285Z,6
2023-01-05T21:00:03.239Z,6
2023-01-05T21:20:02.989Z,5.9
2023-01-05T21:40:04.076Z,5.8
2023-01-05T22:00:03.758Z,5.7
2023-01-05T22:20:03.672Z,5.7
2023-01-05T22:40:03.378Z,5.8
2023-01-05T23:00:04.848Z,5.7
2023-01-05T23:20:03.654Z,5.6
2023-01-05T23:40:04.112Z,5.5
